Time;durP1;ratioP1;P1;durP2;ratioP2;P2;SDS_P1;SDS_P2;PMS_P1;PMS_P2;Temp;Humidity;BMP_temperature;BMP_pressure;BME280_temperature;BME280_humidity;BME280_pressure;Samples;Min_cycle;Max_cycle;Signal;HPM_P1;HPM_P2
2022/09/23 00:01:27;;;;;;;;;;;12.90;75.20;;;-151.14;100.00;62537.16;4288773;33;19909;-82
2022/09/23 00:03:58;;;;;;;;;;;12.90;75.10;;;-151.14;100.00;62537.16;4263867;33;19901;-83
2022/09/23 00:06:28;;;;;;;;;;;12.90;75.10;;;-151.14;100.00;62537.16;4287842;33;19948;-83
2022/09/23 00:08:56;;;;;;;;;;;12.90;75.10;;;-151.14;100.00;62537.16;4287497;33;19909;-82
2022/09/23 00:11:26;;;;;;;;;;;12.90;75.10;;;-151.14;100.00;62537.16;4287779;33;19909;-82
2022/09/23 00:13:56;;;;;;;;;;;12.90;75.00;;;-151.14;100.00;62537.16;4287449;33;20217;-82
2022/09/23 00:16:27;;;;;;;;;;;12.90;75.00;;;-151.14;100.00;62537.16;4263748;33;19902;-83
2022/09/23 00:18:57;;;;;;;;;;;12.90;75.10;;;-151.14;100.00;62537.16;4287575;33;20004;-82
2022/09/23 00:21:25;;;;;;;;;;;12.90;76.00;;;-151.14;100.00;62537.16;4287520;33;20024;-82
2022/09/23 00:23:54;;;;;;;;;;;12.90;75.10;;;-151.14;100.00;62537.16;4287467;33;19909;-83
2022/09/23 00:26:22;;;;;;;;;;;12.90;75.10;;;-151.14;100.00;62537.16;4263592;33;19908;-82
2022/09/23 00:28:51;;;;;;;;;;;12.90;75.00;;;-151.14;100.00;62537.16;4263479;33;19945;-82
2022/09/23 00:31:22;;;;;;;;;;;12.90;75.20;;;-151.14;100.00;62537.16;4311668;33;19909;-82
2022/09/23 00:33:54;;;;;;;;;;;12.90;75.10;;;-151.14;100.00;62537.16;4287678;33;19941;-82
2022/09/23 00:36:24;;;;;;;;;;;12.90;75.00;;;-151.14;100.00;62537.16;4287468;33;20197;-83
2022/09/23 00:38:52;;;;;;;;;;;12.90;75.10;;;-151.14;100.00;62537.16;4263141;33;19902;-82
2022/09/23 00:41:21;;;;;;;;;;;12.90;75.10;;;-151.14;100.00;62537.16;4288947;33;20001;-82
2022/09/23 00:43:51;;;;;;;;;;;12.90;75.20;;;-151.14;100.00;62537.16;4289792;33;19928;-82
2022/09/23 00:46:22;;;;;;;;;;;12.90;75.10;;;-151.14;100.00;62537.16;4289894;33;19902;-81
2022/09/23 00:48:53;;;;;;;;;;;12.90;75.10;;;-151.14;100.00;62537.16;4289810;33;19902;-83
2022/09/23 00:51:25;;;;;;;;;;;12.90;75.20;;;-151.14;100.00;62537.16;4290764;33;19918;-83
2022/09/23 00:53:53;;;;;;;;;;;12.90;75.20;;;-151.14;100.00;62537.16;4289799;33;19948;-82
2022/09/23 00:56:22;;;;;;;;;;;12.90;75.10;;;-151.14;100.00;62537.16;4289676;33;19902;-82
2022/09/23 00:58:51;;;;;;;;;;;12.90;75.20;;;-151.14;100.00;62537.16;4265621;33;19908;-83
2022/09/23 01:01:20;;;;;;;;;;;12.90;75.20;;;-151.14;100.00;62537.16;4290924;33;19919;-82
2022/09/23 01:03:48;;;;;;;;;;;12.90;75.20;;;-151.14;100.00;62537.16;4290522;33;19911;-83
2022/09/23 01:06:17;;;;;;;;;;;12.90;75.30;;;-151.14;100.00;62537.16;4290646;33;19984;-82
2022/09/23 01:08:47;;;;;;;;;;;12.90;75.20;;;-151.14;100.00;62537.16;4289588;33;19942;-82
2022/09/23 01:11:40;;;;;;;;;;;12.90;75.20;;;12.05;100.00;62537.16;4290611;33;19909;-82
2022/09/23 01:14:31;;;;;;;;;;;12.90;75.20;;;12.05;100.00;62537.16;4289667;33;19902;-82
2022/09/23 01:17:04;;;;;;;;;;;12.90;75.20;;;12.05;100.00;62537.16;4289548;33;20004;-83
2022/09/23 01:20:02;;;;;;;;;;;12.90;75.30;;;12.05;100.00;62537.16;4290367;33;19908;-82
2022/09/23 01:22:34;;;;;;;;;;;12.90;75.20;;;12.05;100.00;62537.16;4290603;33;19902;-83
2022/09/23 01:25:27;;;;;;;;;;;12.90;75.20;;;12.05;100.00;62537.16;4289433;33;19915;-82
2022/09/23 01:28:09;;;;;;;;;;;12.90;75.20;;;12.05;100.00;96451.81;4288956;33;19902;-82
2022/09/23 01:30:46;;;;;;;;;;;12.90;75.20;;;-151.14;100.00;62537.16;4289575;33;19902;-82
2022/09/23 01:33:20;;;;;;;;;;;12.90;75.20;;;-151.14;100.00;62537.16;4265455;33;19909;-83
2022/09/23 01:35:59;;;;;;;;;;;12.90;75.20;;;-151.14;100.00;62537.16;4289505;33;19909;-82
2022/09/23 01:38:38;;;;;;;;;;;12.90;75.30;;;-151.14;100.00;62537.16;4289245;33;20020;-82
2022/09/23 01:41:22;;;;;;;;;;;12.90;75.30;;;-151.14;100.00;62537.16;4290394;33;20215;-82
2022/09/23 01:43:58;;;;;;;;;;;12.80;75.10;;;-151.14;100.00;62537.16;4289235;33;19911;-82
2022/09/23 01:46:30;;;;;;;;;;;12.90;75.30;;;-151.14;100.00;62537.16;4290260;33;19902;-82
2022/09/23 01:49:02;;;;;;;;;;;12.80;75.10;;;-151.14;100.00;62537.16;4288873;33;19909;-83
2022/09/23 01:51:33;;;;;;;;;;;12.90;75.30;;;-151.14;100.00;62537.16;4289431;33;19902;-82
2022/09/23 01:54:06;;;;;;;;;;;12.80;75.20;;;-151.14;100.00;62537.16;4289151;33;19981;-82
2022/09/23 01:56:39;;;;;;;;;;;12.90;75.30;;;-151.14;100.00;62537.16;4289082;33;19902;-82
2022/09/23 01:59:12;;;;;;;;;;;12.80;75.10;;;-151.14;100.00;62537.16;4289882;33;19932;-83
2022/09/23 02:01:45;;;;;;;;;;;12.80;75.10;;;-151.14;100.00;62537.16;4290108;33;19901;-82
2022/09/23 02:04:17;;;;;;;;;;;12.80;75.10;;;11.93;100.00;62537.16;4288904;33;19901;-83
2022/09/23 02:06:49;;;;;;;;;;;12.80;75.10;;;11.93;100.00;82761.84;4289850;33;19985;-83
2022/09/23 02:09:20;;;;;;;;;;;12.80;75.20;;;-151.14;100.00;62537.16;4312702;33;20137;-83
2022/09/23 02:11:48;;;;;;;;;;;12.80;75.10;;;-151.14;100.00;62537.16;4288093;33;19951;-82
2022/09/23 02:14:19;;;;;;;;;;;12.80;75.20;;;11.89;100.00;62537.16;4289727;33;19989;-82
2022/09/23 02:16:50;;;;;;;;;;;12.80;75.20;;;11.89;100.00;82756.53;4289858;33;19901;-82
2022/09/23 02:19:22;;;;;;;;;;;12.80;75.30;;;-151.14;100.00;62537.16;4289663;33;20121;-82
2022/09/23 02:21:54;;;;;;;;;;;12.80;75.10;;;11.91;100.00;62537.16;4289899;33;19992;-82
2022/09/23 02:24:25;;;;;;;;;;;12.80;75.20;;;11.91;100.00;62537.16;4289688;33;19909;-82
2022/09/23 02:26:56;;;;;;;;;;;12.80;75.30;;;-151.14;100.00;62537.16;4288711;33;19921;-82
2022/09/23 02:29:27;;;;;;;;;;;12.80;75.20;;;-151.14;100.00;62537.16;4289425;33;19989;-82
2022/09/23 02:32:00;;;;;;;;;;;12.80;75.30;;;-151.14;100.00;62537.16;4289697;33;20005;-82
2022/09/23 02:34:38;;;;;;;;;;;12.80;75.20;;;-151.14;100.00;62537.16;4264801;33;19901;-83
2022/09/23 02:37:13;;;;;;;;;;;12.80;75.20;;;-151.14;100.00;62537.16;4288765;33;19909;-82
2022/09/23 02:39:51;;;;;;;;;;;12.80;75.20;;;-151.14;100.00;62537.16;4288300;33;19984;-82
2022/09/23 02:42:21;;;;;;;;;;;12.80;75.20;;;-151.14;100.00;62537.16;4264881;33;19902;-82
2022/09/23 02:44:50;;;;;;;;;;;12.80;75.20;;;-151.14;100.00;62537.16;4289500;33;19997;-82
2022/09/23 02:47:20;;;;;;;;;;;12.80;75.20;;;-151.14;100.00;62537.16;4288439;33;19902;-82
2022/09/23 02:49:49;;;;;;;;;;;12.80;75.20;;;-151.14;100.00;62537.16;4289221;33;20011;-82
2022/09/23 02:52:17;;;;;;;;;;;12.80;75.20;;;11.89;100.00;62537.16;4289625;33;19902;-82
2022/09/23 02:54:46;;;;;;;;;;;12.80;75.20;;;11.89;100.00;62537.16;4289421;33;20309;-82
2022/09/23 02:57:14;;;;;;;;;;;12.80;75.20;;;11.89;100.00;62537.16;4312607;33;20243;-82
2022/09/23 02:59:44;;;;;;;;;;;12.80;75.20;;;-151.14;100.00;62537.16;4288096;33;19989;-82
2022/09/23 03:02:25;;;;;;;;;;;12.80;75.20;;;11.89;100.00;82755.47;4289656;33;19917;-82
2022/09/23 03:04:59;;;;;;;;;;;12.80;75.20;;;-151.14;100.00;62537.16;4263719;33;20323;-82
2022/09/23 03:07:33;;;;;;;;;;;12.80;75.20;;;-151.14;100.00;62537.16;4289073;33;20237;-83
2022/09/23 03:10:08;;;;;;;;;;;12.80;75.20;;;-151.14;100.00;62537.16;4288002;33;19909;-82
2022/09/23 03:12:40;;;;;;;;;;;12.80;75.20;;;-151.14;100.00;62537.16;4289298;33;20201;-82
2022/09/23 03:15:18;;;;;;;;;;;12.80;75.10;;;-151.14;100.00;62537.16;4289130;33;19908;-82
2022/09/23 03:17:54;;;;;;;;;;;12.80;75.30;;;-151.14;100.00;62537.16;4287841;33;20288;-82
2022/09/23 03:20:26;;;;;;;;;;;12.80;75.20;;;-151.14;100.00;62537.16;4264123;33;19902;-82
2022/09/23 03:22:57;;;;;;;;;;;12.80;75.20;;;-151.14;100.00;62537.16;4289183;33;19901;-82
2022/09/23 03:25:25;;;;;;;;;;;12.70;75.20;;;-151.14;100.00;62537.16;4288979;33;19909;-82
2022/09/23 03:27:56;;;;;;;;;;;12.80;75.20;;;-151.14;100.00;62537.16;4288913;33;19971;-82
2022/09/23 03:30:25;;;;;;;;;;;12.80;75.20;;;-151.14;100.00;62537.16;4289032;33;19976;-83
2022/09/23 03:32:55;;;;;;;;;;;12.80;75.20;;;-151.14;100.00;62537.16;4289109;33;19916;-82
2022/09/23 03:35:24;;;;;;;;;;;12.80;75.20;;;-151.14;100.00;62537.16;4289002;33;19908;-82
2022/09/23 03:37:55;;;;;;;;;;;12.70;75.20;;;-151.14;100.00;62537.16;4287894;33;20216;-82
2022/09/23 03:40:26;;;;;;;;;;;12.70;75.20;;;-151.14;100.00;62537.16;4288831;33;19947;-82
2022/09/23 03:42:56;;;;;;;;;;;12.80;75.20;;;-151.14;100.00;62537.16;4289050;33;19902;-83
2022/09/23 03:45:27;;;;;;;;;;;12.70;75.20;;;-151.14;100.00;62537.16;4288834;33;20311;-82
2022/09/23 03:47:57;;;;;;;;;;;12.70;75.20;;;-151.14;100.00;62537.16;4288732;33;19901;-82
2022/09/23 03:50:25;;;;;;;;;;;12.70;75.20;;;-151.14;100.00;62537.16;4287671;33;19906;-82
2022/09/23 03:52:54;;;;;;;;;;;12.80;75.30;;;-151.14;100.00;62537.16;4264116;33;19993;-82
2022/09/23 03:55:23;;;;;;;;;;;12.80;75.30;;;-151.14;100.00;62537.16;4287906;33;20028;-82
2022/09/23 03:57:51;;;;;;;;;;;12.80;76.10;;;-151.14;100.00;62537.16;4287670;33;19902;-82
2022/09/23 04:00:20;;;;;;;;;;;12.80;75.20;;;-151.14;100.00;62537.16;4288765;33;20005;-82
2022/09/23 04:02:49;;;;;;;;;;;12.80;75.30;;;-151.14;100.00;62537.16;4287926;33;19988;-82
2022/09/23 04:05:19;;;;;;;;;;;12.70;75.20;;;-151.14;100.00;62537.16;4287830;33;19909;-82
2022/09/23 04:07:49;;;;;;;;;;;12.70;75.20;;;-151.14;100.00;62537.16;4287511;33;19909;-82
2022/09/23 04:10:18;;;;;;;;;;;12.70;76.00;;;-151.14;100.00;62537.16;4288858;33;19902;-82
2022/09/23 04:12:46;;;;;;;;;;;12.80;75.20;;;-151.14;100.00;62537.16;4287622;33;19909;-82
2022/09/23 04:15:15;;;;;;;;;;;12.70;75.20;;;11.84;100.00;62537.16;4263688;33;19906;-83
2022/09/23 04:17:43;;;;;;;;;;;12.70;75.20;;;11.84;100.00;62537.16;4289592;33;20001;-83
2022/09/23 04:20:12;;;;;;;;;;;12.70;75.30;;;11.84;100.00;62537.16;4290174;33;19917;-82
2022/09/23 04:22:42;;;;;;;;;;;12.70;75.20;;;11.84;100.00;62537.16;4291251;33;20280;-83
2022/09/23 04:25:10;;;;;;;;;;;12.70;75.30;;;11.84;100.00;62537.16;4339119;32;19908;-83
2022/09/23 04:27:39;;;;;;;;;;;12.70;75.30;;;11.84;100.00;62537.16;4314148;33;19902;-82
2022/09/23 04:30:09;;;;;;;;;;;12.70;75.20;;;11.84;100.00;62537.16;4314309;33;19933;-83
2022/09/23 04:32:37;;;;;;;;;;;12.70;75.30;;;11.84;100.00;82748.41;4291194;33;20216;-82
2022/09/23 04:35:07;;;;;;;;;;;12.70;75.30;;;-151.14;100.00;62537.16;4291188;33;19901;-83
2022/09/23 04:37:36;;;;;;;;;;;12.70;75.30;;;11.81;100.00;62537.16;4290594;33;19962;-82
2022/09/23 04:40:08;;;;;;;;;;;12.70;75.30;;;11.81;100.00;62537.16;4291005;33;19985;-82
2022/09/23 04:42:36;;;;;;;;;;;12.70;75.20;;;11.81;100.00;62537.16;4338971;32;19952;-82
2022/09/23 04:45:06;;;;;;;;;;;12.70;75.20;;;11.81;100.00;62537.16;4314136;33;20221;-82
2022/09/23 04:47:36;;;;;;;;;;;12.70;75.30;;;11.81;100.00;62537.16;4290645;33;20001;-82
2022/09/23 04:50:05;;;;;;;;;;;12.70;75.30;;;11.81;100.00;62537.16;4314328;32;19981;-83
2022/09/23 04:52:34;;;;;;;;;;;12.70;75.30;;;11.81;100.00;62537.16;4289834;33;19996;-82
2022/09/23 04:55:02;;;;;;;;;;;12.70;75.30;;;11.81;100.00;62537.16;4290904;33;19909;-82
2022/09/23 04:57:33;;;;;;;;;;;12.70;75.30;;;11.81;100.00;62537.16;4290654;33;20004;-83
2022/09/23 05:00:02;;;;;;;;;;;12.70;75.30;;;11.81;100.00;62537.16;4313825;33;19968;-82
2022/09/23 05:02:30;;;;;;;;;;;12.70;75.20;;;11.81;100.00;62537.16;4290635;33;19909;-83
2022/09/23 05:04:59;;;;;;;;;;;12.70;75.30;;;11.81;100.00;62537.16;4290775;33;19975;-82
2022/09/23 05:07:28;;;;;;;;;;;12.70;75.30;;;11.81;100.00;62537.16;4290426;33;19947;-82
2022/09/23 05:09:56;;;;;;;;;;;12.70;75.20;;;-151.14;100.00;62537.16;4290790;33;19909;-82
2022/09/23 05:12:25;;;;;;;;;;;12.70;75.30;;;11.81;100.00;62537.16;4290538;33;19901;-83
2022/09/23 05:14:55;;;;;;;;;;;12.70;75.30;;;11.81;100.00;62537.16;4290739;33;19901;-82
2022/09/23 05:17:24;;;;;;;;;;;12.70;75.30;;;-151.14;100.00;62537.16;4290430;33;19902;-83
2022/09/23 05:19:52;;;;;;;;;;;12.70;75.40;;;-151.14;100.00;62537.16;4289661;33;20125;-82
2022/09/23 05:22:21;;;;;;;;;;;12.70;75.30;;;-151.14;100.00;62537.16;4339271;32;19908;-82
2022/09/23 05:24:49;;;;;;;;;;;12.70;75.30;;;-151.14;100.00;62537.16;4291562;33;19902;-81
2022/09/23 05:27:17;;;;;;;;;;;12.70;75.40;;;-151.14;100.00;62537.16;4290883;33;20243;-82
2022/09/23 05:29:46;;;;;;;;;;;12.70;75.40;;;-151.14;100.00;62537.16;4290343;33;19902;-82
2022/09/23 05:32:16;;;;;;;;;;;12.70;75.30;;;-151.14;100.00;62537.16;4291568;33;19917;-83
2022/09/23 05:34:45;;;;;;;;;;;12.70;75.40;;;-151.14;100.00;62537.16;4290679;33;19902;-82
2022/09/23 05:37:13;;;;;;;;;;;12.70;75.30;;;-151.14;100.00;62537.16;4313419;33;19902;-82
2022/09/23 05:39:42;;;;;;;;;;;12.70;75.50;;;-151.14;100.00;62537.16;4289358;33;19901;-83
2022/09/23 05:42:11;;;;;;;;;;;12.70;75.40;;;-151.14;100.00;62537.16;4289191;33;19901;-82
2022/09/23 05:44:39;;;;;;;;;;;12.70;75.40;;;-151.14;100.00;62537.16;4265359;33;20007;-83
2022/09/23 05:47:08;;;;;;;;;;;12.70;75.40;;;-151.14;100.00;62537.16;4289161;33;19902;-82
2022/09/23 05:49:38;;;;;;;;;;;12.70;75.40;;;-151.14;100.00;62537.16;4290154;33;19902;-82
2022/09/23 05:52:06;;;;;;;;;;;12.70;75.40;;;-151.14;100.00;62537.16;4289228;33;19902;-82
2022/09/23 05:54:35;;;;;;;;;;;12.70;75.40;;;-151.14;100.00;62537.16;4303887;33;19901;-82
2022/09/23 05:57:04;;;;;;;;;;;12.70;75.50;;;-151.14;100.00;62537.16;4306134;33;20125;-82
2022/09/23 05:59:33;;;;;;;;;;;12.70;75.30;;;-151.14;100.00;62537.16;4267148;33;19909;-82
2022/09/23 06:02:01;;;;;;;;;;;12.70;75.30;;;-151.14;100.00;62537.16;4289115;33;19901;-83
2022/09/23 06:04:30;;;;;;;;;;;12.70;75.20;;;-151.14;100.00;62537.16;4265190;33;19909;-82
2022/09/23 06:07:00;;;;;;;;;;;12.70;75.10;;;-151.14;100.00;62537.16;4289055;33;19970;-82
2022/09/23 06:09:28;;;;;;;;;;;12.70;75.10;;;11.81;100.00;62537.16;4289819;33;19909;-82
2022/09/23 06:11:57;;;;;;;;;;;12.80;75.20;;;-151.14;100.00;62537.16;4288933;33;19905;-82
2022/09/23 06:14:27;;;;;;;;;;;12.80;75.10;;;11.85;100.00;62537.16;4290101;33;19908;-82
2022/09/23 06:16:56;;;;;;;;;;;12.80;75.10;;;11.85;100.00;62537.16;4288889;33;19909;-83
2022/09/23 06:19:24;;;;;;;;;;;12.80;75.10;;;11.85;100.00;62537.16;4288939;33;19924;-83
2022/09/23 06:21:53;;;;;;;;;;;12.80;75.00;;;11.85;100.00;62537.16;4288682;33;20369;-82
2022/09/23 06:24:23;;;;;;;;;;;12.80;75.00;;;11.85;100.00;62537.16;4289866;33;20117;-82
2022/09/23 06:26:51;;;;;;;;;;;12.80;75.00;;;11.85;100.00;62537.16;4264890;33;20300;-82
2022/09/23 06:29:19;;;;;;;;;;;12.80;75.00;;;11.85;100.00;62537.16;4288451;33;19902;-82
2022/09/23 06:31:49;;;;;;;;;;;12.80;75.00;;;11.85;100.00;62537.16;4289728;33;19910;-82
2022/09/23 06:34:18;;;;;;;;;;;12.90;74.90;;;11.85;100.00;62537.16;4264714;33;19909;-82
2022/09/23 06:36:46;;;;;;;;;;;12.90;74.90;;;-151.14;100.00;62537.16;4289611;33;19908;-82
2022/09/23 06:39:15;;;;;;;;;;;12.90;74.80;;;-151.14;100.00;62537.16;4287865;33;19910;-82
2022/09/23 06:41:45;;;;;;;;;;;12.90;74.80;;;11.96;100.00;62537.16;4289621;33;19909;-82
2022/09/23 06:44:13;;;;;;;;;;;12.90;74.90;;;11.96;100.00;62537.16;4288545;33;19938;-82
2022/09/23 06:46:42;;;;;;;;;;;12.90;74.80;;;11.96;100.00;62537.16;4288477;33;19902;-82
2022/09/23 06:49:11;;;;;;;;;;;12.90;74.80;;;11.96;100.00;62537.16;4288399;33;19973;-82
2022/09/23 06:51:40;;;;;;;;;;;12.90;74.80;;;11.96;100.00;62537.16;4259727;33;20005;-82
2022/09/23 06:54:09;;;;;;;;;;;12.90;74.70;;;11.96;100.00;82766.09;4283636;33;19902;-82
2022/09/23 06:56:38;;;;;;;;;;;12.90;74.70;;;-151.14;100.00;62537.16;4260844;33;19910;-83
2022/09/23 06:59:09;;;;;;;;;;;12.90;74.70;;;11.97;100.00;62537.16;4259465;33;19902;-82
2022/09/23 07:01:38;;;;;;;;;;;12.90;74.70;;;11.97;100.00;62537.16;4307965;33;20010;-82
2022/09/23 07:04:07;;;;;;;;;;;12.90;74.70;;;11.97;100.00;62537.16;4259638;33;20233;-82
2022/09/23 07:06:36;;;;;;;;;;;12.90;74.70;;;11.97;100.00;82767.50;4283646;33;19924;-82
2022/09/23 07:09:04;;;;;;;;;;;12.90;74.70;;;-151.14;100.00;62537.16;4283345;33;19903;-82
2022/09/23 07:11:33;;;;;;;;;;;12.90;74.70;;;-151.14;100.00;62537.16;4260672;33;19910;-82
2022/09/23 07:14:01;;;;;;;;;;;12.90;74.80;;;11.94;100.00;82763.25;4235958;33;19959;-82
2022/09/23 07:16:31;;;;;;;;;;;12.90;74.80;;;-151.14;100.00;62537.16;4259660;33;19994;-82
2022/09/23 07:19:00;;;;;;;;;;;12.90;74.80;;;-151.14;100.00;62537.16;4259370;33;19909;-82
2022/09/23 07:21:28;;;;;;;;;;;12.90;74.90;;;-151.14;100.00;62537.16;4269591;33;19933;-82
2022/09/23 07:23:57;;;;;;;;;;;12.90;74.90;;;-151.14;100.00;62537.16;4288442;33;19963;-82
2022/09/23 07:26:26;;;;;;;;;;;12.90;74.90;;;-151.14;100.00;62537.16;4288465;33;19902;-82
2022/09/23 07:28:55;;;;;;;;;;;12.90;75.00;;;-151.14;100.00;62537.16;4286944;33;19965;-82
2022/09/23 07:31:24;;;;;;;;;;;12.90;75.00;;;-151.14;100.00;62537.16;4287305;33;19917;-82
2022/09/23 07:33:56;;;;;;;;;;;12.90;75.00;;;11.96;100.00;82766.09;4263412;33;19909;-82
2022/09/23 07:36:26;;;;;;;;;;;12.90;75.10;;;-151.14;100.00;62537.16;4263448;33;19909;-82
2022/09/23 07:39:02;;;;;;;;;;;12.90;75.20;;;-151.14;100.00;62537.16;4311223;33;19921;-82
2022/09/23 07:41:31;;;;;;;;;;;12.90;75.00;;;-151.14;100.00;62537.16;4263678;33;20007;-82
2022/09/23 07:44:00;;;;;;;;;;;12.90;74.90;;;-151.14;100.00;62537.16;4313638;33;20237;-82
2022/09/23 07:46:30;;;;;;;;;;;12.90;74.70;;;-151.14;100.00;62537.16;4316661;33;20227;-82
2022/09/23 07:49:00;;;;;;;;;;;12.90;74.80;;;-151.14;100.00;62537.16;4316028;33;20236;-82
2022/09/23 07:51:31;;;;;;;;;;;12.80;74.60;;;11.88;100.00;62537.16;4302410;33;19918;-82
2022/09/23 07:54:00;;;;;;;;;;;12.80;74.70;;;11.88;100.00;62537.16;4287308;33;20121;-82
2022/09/23 07:56:29;;;;;;;;;;;12.80;74.90;;;11.88;100.00;62537.16;4287380;33;19909;-82
2022/09/23 07:59:02;;;;;;;;;;;12.80;74.70;;;11.88;100.00;62537.16;4263003;33;20218;-83
2022/09/23 08:01:32;;;;;;;;;;;12.80;74.80;;;11.88;100.00;62537.16;4287129;33;19956;-82
2022/09/23 08:04:04;;;;;;;;;;;12.80;74.90;;;11.88;100.00;62537.16;4287308;33;19902;-83
2022/09/23 08:06:33;;;;;;;;;;;12.80;74.70;;;11.88;100.00;62537.16;4287302;33;20007;-82
2022/09/23 08:09:01;;;;;;;;;;;12.80;74.80;;;11.88;100.00;62537.16;4287106;33;20027;-82
2022/09/23 08:11:30;;;;;;;;;;;12.80;74.80;;;11.88;100.00;62537.16;4287082;33;20153;-83
2022/09/23 08:13:58;;;;;;;;;;;12.80;75.00;;;11.88;100.00;62537.16;4288059;33;20214;-82
2022/09/23 08:16:27;;;;;;;;;;;12.80;74.80;;;11.88;100.00;62537.16;4287184;33;20197;-82
2022/09/23 08:18:55;;;;;;;;;;;12.70;74.80;;;11.88;100.00;62537.16;4288024;33;19917;-82
2022/09/23 08:21:25;;;;;;;;;;;12.70;74.90;;;11.96;100.00;62537.16;4263001;33;20013;-82
2022/09/23 08:23:54;;;;;;;;;;;12.80;74.80;;;-151.14;100.00;62537.16;4286886;33;20215;-82
2022/09/23 08:26:22;;;;;;;;;;;12.80;74.80;;;-151.14;100.00;62537.16;4287725;33;19909;-82
2022/09/23 08:28:52;;;;;;;;;;;12.80;74.80;;;-151.14;100.00;62537.16;4262898;33;20602;-82
2022/09/23 08:31:21;;;;;;;;;;;12.80;74.70;;;-151.14;100.00;62537.16;4286864;33;19985;-82
2022/09/23 08:33:55;;;;;;;;;;;12.80;74.80;;;-151.14;100.00;62537.16;4262830;33;20217;-82
2022/09/23 08:36:25;;;;;;;;;;;12.80;74.80;;;-151.14;100.00;62537.16;4335490;32;19902;-83
2022/09/23 08:38:54;;;;;;;;;;;12.80;74.90;;;-151.14;100.00;62537.16;4287558;33;19998;-82
2022/09/23 08:41:27;;;;;;;;;;;12.80;75.10;;;-151.14;100.00;62537.16;4286680;33;20027;-82
2022/09/23 08:43:59;;;;;;;;;;;12.80;74.80;;;11.82;100.00;82746.63;4263079;33;19902;-82
2022/09/23 08:46:31;;;;;;;;;;;12.80;74.80;;;-151.14;100.00;62537.16;4286848;33;19965;-83
2022/09/23 08:49:00;;;;;;;;;;;12.80;75.30;;;11.86;100.00;62537.16;4335268;32;19902;-82
2022/09/23 08:51:35;;;;;;;;;;;12.80;74.90;;;11.86;100.00;82751.94;4286281;33;19916;-82
2022/09/23 08:54:04;;;;;;;;;;;12.80;74.80;;;-151.14;100.00;62537.16;4262030;33;19917;-82
2022/09/23 08:56:32;;;;;;;;;;;12.80;75.00;;;11.90;100.00;62537.16;4286490;33;19902;-82
2022/09/23 08:59:06;;;;;;;;;;;12.80;74.70;;;11.90;100.00;96405.97;4286528;33;19920;-83
2022/09/23 09:01:42;;;;;;;;;;;12.90;74.70;;;11.90;100.00;62537.16;4262669;33;19910;-82
2022/09/23 09:04:16;;;;;;;;;;;12.90;74.90;;;11.90;100.00;62537.16;4289894;33;19910;-82
2022/09/23 09:06:50;;;;;;;;;;;12.90;74.90;;;-151.14;100.00;62537.16;4289183;33;20005;-82
2022/09/23 09:09:23;;;;;;;;;;;12.90;75.00;;;-151.14;100.00;62537.16;4264983;33;19910;-82
2022/09/23 09:11:54;;;;;;;;;;;12.90;74.70;;;-151.14;100.00;62537.16;4289067;33;19927;-84
2022/09/23 09:14:25;;;;;;;;;;;12.90;74.50;;;-151.14;100.00;62537.16;4288703;33;20231;-83
2022/09/23 09:16:58;;;;;;;;;;;12.90;74.40;;;11.95;100.00;82764.66;4288852;33;20137;-82
2022/09/23 09:19:58;;;;;;;;;;;12.90;74.60;;;-151.14;100.00;62537.16;4289931;33;19902;-82
2022/09/23 09:22:48;;;;;;;;;;;12.90;74.70;;;11.97;100.00;62537.16;4285546;33;20015;-83
2022/09/23 09:25:41;;;;;;;;;;;12.90;74.60;;;-151.14;100.00;62537.16;4288896;33;19902;-82
2022/09/23 09:28:15;;;;;;;;;;;12.90;75.00;;;-151.14;100.00;62537.16;4288702;33;20445;-83
2022/09/23 09:30:45;;;;;;;;;;;12.90;74.90;;;11.95;100.00;82764.66;4289813;33;19902;-82
2022/09/23 09:33:16;;;;;;;;;;;12.90;74.70;;;-151.14;100.00;62537.16;4289719;33;19902;-83
2022/09/23 09:36:01;;;;;;;;;;;12.90;74.50;;;-151.14;100.00;62537.16;4288601;33;19909;-82
2022/09/23 09:38:31;;;;;;;;;;;12.90;74.60;;;-151.14;100.00;62537.16;4288518;33;20141;-82
2022/09/23 09:41:01;;;;;;;;;;;12.90;74.40;;;11.88;100.00;62537.16;4264717;33;19902;-83
2022/09/23 09:43:30;;;;;;;;;;;12.80;74.30;;;11.88;100.00;82756.53;4288589;33;19902;-83
2022/09/23 09:46:07;;;;;;;;;;;12.80;74.70;;;-151.14;100.00;62537.16;4288530;33;19917;-83
2022/09/23 09:48:38;;;;;;;;;;;12.80;74.80;;;-151.14;100.00;62537.16;4288472;33;20321;-83
2022/09/23 09:51:20;;;;;;;;;;;12.90;75.30;;;-151.14;100.00;62537.16;4288395;33;20332;-83
2022/09/23 09:53:50;;;;;;;;;;;12.90;75.30;;;-151.14;100.00;62537.16;4289682;33;20036;-83
2022/09/23 09:56:21;;;;;;;;;;;12.90;75.00;;;-151.14;100.00;62537.16;4288346;33;19917;-83
2022/09/23 09:58:50;;;;;;;;;;;12.90;74.80;;;-151.14;100.00;62537.16;4288204;33;19910;-83
2022/09/23 10:01:21;;;;;;;;;;;12.90;75.00;;;-151.14;100.00;62537.16;4288125;33;19909;-83
2022/09/23 10:03:52;;;;;;;;;;;13.00;75.00;;;-151.14;100.00;62537.16;4289541;33;20261;-83
2022/09/23 10:06:23;;;;;;;;;;;13.00;74.70;;;-151.14;100.00;62537.16;4265226;33;19902;-83
2022/09/23 10:09:15;;;;;;;;;;;13.00;74.50;;;-151.14;100.00;62537.16;4288926;33;20205;-83
2022/09/23 10:11:44;;;;;;;;;;;13.10;74.40;;;-151.14;100.00;62537.16;4264884;33;19962;-83
2022/09/23 10:14:16;;;;;;;;;;;13.10;74.20;;;-151.14;100.00;62537.16;4288870;33;20129;-84
2022/09/23 10:16:46;;;;;;;;;;;13.10;74.20;;;-151.14;100.00;62537.16;4265023;33;19902;-83
2022/09/23 10:19:23;;;;;;;;;;;13.10;74.20;;;-151.14;100.00;62537.16;4289809;33;20008;-83
2022/09/23 10:21:53;;;;;;;;;;;13.10;74.60;;;-151.14;100.00;62537.16;4265084;33;19909;-84
2022/09/23 10:24:26;;;;;;;;;;;13.10;74.40;;;-151.14;100.00;62537.16;4265349;33;19901;-84
2022/09/23 10:26:59;;;;;;;;;;;13.10;74.50;;;-151.14;100.00;62537.16;4288778;33;20133;-84
2022/09/23 10:29:30;;;;;;;;;;;13.10;74.60;;;-151.14;100.00;62537.16;4288613;33;20130;-84
2022/09/23 10:32:27;;;;;;;;;;;13.10;74.80;;;-151.14;100.00;62537.16;4264817;33;19902;-84
2022/09/23 10:34:59;;;;;;;;;;;13.10;74.80;;;-151.14;100.00;62537.16;4288654;33;20256;-83
2022/09/23 10:37:33;;;;;;;;;;;13.10;74.90;;;-151.14;100.00;62537.16;4264749;33;20008;-83
2022/09/23 10:46:39;;;;;;;;;;;13.10;74.80;;;-151.14;100.00;62537.16;4264546;33;19902;-85
2022/09/23 10:49:33;;;;;;;;;;;13.10;74.90;;;-151.14;100.00;62537.16;4288615;33;19970;-85
2022/09/23 10:52:13;;;;;;;;;;;13.00;74.50;;;-151.14;100.00;62537.16;4288426;33;20001;-85
2022/09/23 10:54:48;;;;;;;;;;;13.00;74.50;;;-151.14;100.00;62537.16;4288704;33;19902;-84
2022/09/23 10:57:40;;;;;;;;;;;13.00;74.40;;;-151.14;100.00;62537.16;4288272;33;19981;-84
2022/09/23 11:00:23;;;;;;;;;;;12.90;74.50;;;-151.14;100.00;62537.16;4262433;33;19909;-84
2022/09/23 11:03:23;;;;;;;;;;;12.90;74.40;;;-151.14;100.00;62537.16;4263909;33;20011;-84
2022/09/23 11:05:59;;;;;;;;;;;12.90;74.30;;;-151.14;100.00;62537.16;4284677;33;19902;-84
2022/09/23 11:08:40;;;;;;;;;;;12.90;74.10;;;-151.14;100.00;62537.16;4263493;33;19909;-84
2022/09/23 11:11:17;;;;;;;;;;;12.80;74.20;;;-151.14;100.00;62537.16;4259054;33;19902;-84
2022/09/23 11:14:08;;;;;;;;;;;12.80;74.20;;;-151.14;100.00;62537.16;4287524;33;19932;-84
2022/09/23 11:16:50;;;;;;;;;;;12.80;74.40;;;-151.14;100.00;62537.16;4286886;33;23235;-84
2022/09/23 11:19:47;;;;;;;;;;;12.80;74.60;;;-151.14;100.00;62537.16;4287415;33;19903;-84
2022/09/23 11:22:35;;;;;;;;;;;12.80;74.70;;;-151.14;100.00;62537.16;4260302;33;20213;-84
2022/09/23 11:25:17;;;;;;;;;;;12.80;74.80;;;-151.14;100.00;62537.16;4263257;33;19902;-84
2022/09/23 11:28:00;;;;;;;;;;;12.80;74.70;;;-151.14;100.00;62537.16;4288290;33;20129;-84